createdAt,value
2018-03-15T00:00:47.118Z,10.75
2018-03-15T00:03:20.982Z,11.38
2018-03-15T00:05:49.325Z,10.95
2018-03-15T00:08:17.650Z,12.13
2018-03-15T00:10:45.997Z,12.68
2018-03-15T00:13:14.355Z,13.10
2018-03-15T00:15:42.680Z,13.40
2018-03-15T00:18:11.022Z,12.73
2018-03-15T00:20:39.873Z,12.02
2018-03-15T00:23:08.183Z,12.68
2018-03-15T00:25:36.529Z,13.15
2018-03-15T00:28:04.854Z,12.07
2018-03-15T00:30:33.945Z,13.45
2018-03-15T00:33:02.268Z,12.57
2018-03-15T00:35:30.610Z,12.60
2018-03-15T00:37:58.905Z,13.88
2018-03-15T00:40:27.254Z,13.20
2018-03-15T00:42:55.867Z,13.30
2018-03-15T00:45:24.192Z,13.43
2018-03-15T00:47:53.316Z,13.25
2018-03-15T00:50:21.651Z,12.43
2018-03-15T00:52:49.964Z,13.50
2018-03-15T00:55:18.292Z,11.25
2018-03-15T00:57:46.615Z,12.15
2018-03-15T01:00:15.706Z,12.00
2018-03-15T01:02:44.805Z,11.02
2018-03-15T01:05:14.423Z,12.48
2018-03-15T01:07:42.741Z,12.30
2018-03-15T01:10:11.063Z,12.60
2018-03-15T01:12:40.191Z,12.70
2018-03-15T01:15:08.559Z,11.57
2018-03-15T01:17:36.876Z,13.02
2018-03-15T01:20:05.211Z,12.70
2018-03-15T01:22:33.559Z,12.75
2018-03-15T01:25:01.899Z,12.73
2018-03-15T01:27:30.314Z,13.68
2018-03-15T01:29:58.628Z,12.73
2018-03-15T01:32:26.966Z,14.35
2018-03-15T01:34:55.320Z,12.15
2018-03-15T01:37:23.623Z,13.50
2018-03-15T01:39:51.957Z,16.00
2018-03-15T01:42:20.325Z,14.48
2018-03-15T01:44:48.660Z,13.07
2018-03-15T01:47:16.977Z,13.70
2018-03-15T01:49:45.434Z,13.48
2018-03-15T01:52:13.757Z,13.32
2018-03-15T01:54:42.139Z,13.85
2018-03-15T01:57:10.480Z,13.85
2018-03-15T01:59:38.788Z,12.80
2018-03-15T02:02:07.099Z,13.55
2018-03-15T02:04:35.450Z,14.35
2018-03-15T02:07:03.751Z,13.85
2018-03-15T02:09:32.049Z,14.02
2018-03-15T02:12:00.839Z,13.80
2018-03-15T02:14:29.108Z,13.45
2018-03-15T02:16:57.413Z,14.82
2018-03-15T02:19:26.528Z,13.40
2018-03-15T02:21:54.839Z,14.68
2018-03-15T02:24:23.170Z,10.73
2018-03-15T02:26:51.555Z,12.65
2018-03-15T02:29:19.870Z,13.32
2018-03-15T02:31:48.187Z,12.32
2018-03-15T02:34:16.985Z,12.27
2018-03-15T02:36:45.308Z,11.77
2018-03-15T02:39:13.666Z,11.10
2018-03-15T02:41:42.002Z,9.82
2018-03-15T02:44:10.317Z,10.88
2018-03-15T02:46:38.629Z,10.30
2018-03-15T02:49:07.007Z,10.55
2018-03-15T02:51:35.319Z,9.43
2018-03-15T02:54:03.621Z,9.40
2018-03-15T02:56:32.801Z,8.77
2018-03-15T02:59:01.087Z,8.63
2018-03-15T03:01:29.403Z,8.85
2018-03-15T03:03:57.706Z,7.53
2018-03-15T03:06:26.041Z,8.55
2018-03-15T03:08:54.329Z,8.15
2018-03-15T03:11:22.674Z,6.80
2018-03-15T03:13:51.011Z,8.20
2018-03-15T03:16:19.329Z,8.55
2018-03-15T03:18:48.941Z,7.72
2018-03-15T03:21:17.249Z,8.32
2018-03-15T03:23:45.540Z,8.13
2018-03-15T03:26:13.903Z,7.78
2018-03-15T03:28:42.211Z,8.00
2018-03-15T03:31:10.502Z,7.78
2018-03-15T03:33:38.882Z,7.25
2018-03-15T03:36:08.256Z,7.50
2018-03-15T03:38:36.589Z,7.37
2018-03-15T03:41:06.073Z,7.20
2018-03-15T03:43:34.383Z,8.05
2018-03-15T03:46:02.686Z,7.22
2018-03-15T03:48:31.018Z,7.32
2018-03-15T03:50:59.326Z,7.35
2018-03-15T03:53:27.628Z,6.72
2018-03-15T03:55:55.978Z,7.05
2018-03-15T03:58:24.279Z,7.00
2018-03-15T04:00:52.580Z,6.95
2018-03-15T04:03:21.217Z,6.72
2018-03-15T04:05:50.273Z,6.65
2018-03-15T04:08:18.585Z,7.28
2018-03-15T04:10:46.905Z,7.05
2018-03-15T04:13:15.200Z,6.70
2018-03-15T04:15:43.558Z,7.18
2018-03-15T04:18:11.857Z,7.80
2018-03-15T04:20:40.175Z,7.37
2018-03-15T04:23:08.504Z,7.18
2018-03-15T04:25:37.672Z,8.52
2018-03-15T04:28:05.987Z,8.55
2018-03-15T04:30:34.296Z,8.68
2018-03-15T04:33:02.645Z,8.90
2018-03-15T04:35:30.933Z,9.60
2018-03-15T04:37:59.267Z,9.43
2018-03-15T04:40:27.620Z,9.50
2018-03-15T04:42:55.990Z,9.65
2018-03-15T04:45:25.050Z,10.40
2018-03-15T04:47:53.455Z,9.27
2018-03-15T04:50:21.758Z,9.75
2018-03-15T04:52:50.836Z,9.90
2018-03-15T04:55:19.931Z,9.90
2018-03-15T04:57:49.003Z,9.65
2018-03-15T05:00:17.337Z,10.48
2018-03-15T05:02:45.676Z,10.63
2018-03-15T05:05:13.996Z,10.68
2018-03-15T05:07:42.331Z,11.55
2018-03-15T05:10:11.026Z,10.18
2018-03-15T05:12:40.123Z,12.15
2018-03-15T05:15:08.435Z,10.98
2018-03-15T05:17:36.768Z,12.68
2018-03-15T05:20:05.063Z,10.65
2018-03-15T05:22:34.150Z,11.77
2018-03-15T05:25:02.483Z,11.70
2018-03-15T05:27:30.832Z,12.45
2018-03-15T05:29:59.168Z,12.60
2018-03-15T05:32:27.560Z,11.48
2018-03-15T05:34:55.865Z,11.38
2018-03-15T05:37:24.201Z,12.25
2018-03-15T05:39:52.547Z,12.18
2018-03-15T05:42:20.860Z,11.85
2018-03-15T05:44:49.246Z,11.75
2018-03-15T05:47:17.624Z,12.90
2018-03-15T05:49:45.929Z,11.30
2018-03-15T05:52:14.239Z,13.93
2018-03-15T05:54:43.074Z,11.70
2018-03-15T05:57:11.387Z,12.55
2018-03-15T05:59:39.706Z,11.77
2018-03-15T06:02:08.069Z,11.05
2018-03-15T06:04:36.390Z,10.55
2018-03-15T06:07:04.716Z,11.70
2018-03-15T06:09:33.037Z,11.50
2018-03-15T06:12:01.352Z,9.18
2018-03-15T06:14:29.673Z,10.05
2018-03-15T06:16:58.374Z,8.82
2018-03-15T06:19:26.668Z,8.82
2018-03-15T06:21:54.974Z,8.13
2018-03-15T06:24:23.301Z,9.68
2018-03-15T06:26:52.377Z,9.40
2018-03-15T06:29:20.695Z,9.05
2018-03-15T06:31:49.069Z,8.45
2018-03-15T06:34:17.421Z,9.02
2018-03-15T06:36:45.756Z,9.23
2018-03-15T06:39:14.300Z,9.70
2018-03-15T06:41:42.620Z,8.60
2018-03-15T06:44:10.967Z,9.93
2018-03-15T06:46:39.419Z,9.10
2018-03-15T06:49:08.552Z,7.62
2018-03-15T06:51:37.659Z,7.75
2018-03-15T06:54:06.798Z,7.75
2018-03-15T06:56:35.090Z,6.75
2018-03-15T06:59:03.409Z,7.35
2018-03-15T07:01:32.616Z,8.05
2018-03-15T07:04:01.703Z,8.10
2018-03-15T07:06:30.867Z,9.88
2018-03-15T07:08:59.232Z,8.02
2018-03-15T07:11:27.598Z,7.90
2018-03-15T07:13:55.917Z,8.18
2018-03-15T07:16:24.261Z,8.43
2018-03-15T07:18:52.573Z,8.57
2018-03-15T07:21:20.907Z,8.35
2018-03-15T07:23:49.634Z,7.72
2018-03-15T07:26:17.956Z,8.50
2018-03-15T07:28:46.273Z,8.15
2018-03-15T07:31:15.105Z,8.15
2018-03-15T07:33:43.437Z,9.67
2018-03-15T07:36:11.754Z,9.40
2018-03-15T07:38:40.102Z,9.97
2018-03-15T07:41:08.412Z,9.40
2018-03-15T07:43:36.715Z,9.50
2018-03-15T07:46:05.365Z,9.63
2018-03-15T07:48:33.672Z,9.17
2018-03-15T07:51:02.783Z,11.23
2018-03-15T07:53:31.157Z,11.00
2018-03-15T07:55:59.477Z,10.27
2018-03-15T07:58:27.820Z,10.60
2018-03-15T08:00:56.183Z,10.43
2018-03-15T08:03:25.282Z,10.13
2018-03-15T08:05:54.385Z,11.33
2018-03-15T08:08:22.973Z,11.60
2018-03-15T08:10:51.301Z,10.60
2018-03-15T08:13:19.618Z,10.00
2018-03-15T08:15:47.964Z,10.93
2018-03-15T08:18:16.337Z,10.50
2018-03-15T08:20:44.646Z,11.48
2018-03-15T08:23:13.750Z,11.63
2018-03-15T08:25:42.085Z,11.90
2018-03-15T08:28:10.401Z,11.02
2018-03-15T08:30:39.145Z,10.75
2018-03-15T08:33:08.274Z,10.45
2018-03-15T08:35:37.389Z,10.48
2018-03-15T08:38:05.747Z,11.52
2018-03-15T08:40:34.136Z,11.60
2018-03-15T08:43:03.214Z,10.63
2018-03-15T08:45:31.534Z,10.70
2018-03-15T08:47:59.985Z,11.20
2018-03-15T08:50:29.094Z,10.90
2018-03-15T08:52:58.478Z,11.23
2018-03-15T08:55:26.812Z,11.60
2018-03-15T08:57:55.163Z,11.50
2018-03-15T09:00:23.498Z,11.27
2018-03-15T09:02:51.824Z,11.70
2018-03-15T09:05:20.944Z,10.75
2018-03-15T09:07:49.357Z,10.82
2018-03-15T09:10:17.720Z,10.82
2018-03-15T09:12:46.045Z,11.55
2018-03-15T09:15:15.448Z,10.90
2018-03-15T09:17:43.789Z,11.82
2018-03-15T09:20:12.097Z,10.90
2018-03-15T09:22:41.230Z,10.82
2018-03-15T09:25:09.579Z,12.40
2018-03-15T09:27:38.686Z,11.75
2018-03-15T09:30:07.052Z,11.80
2018-03-15T09:32:35.437Z,11.80
2018-03-15T09:35:03.771Z,12.60
2018-03-15T09:37:32.430Z,13.50
2018-03-15T09:40:01.581Z,12.43
2018-03-15T09:42:30.826Z,13.77
2018-03-15T09:44:59.231Z,12.13
2018-03-15T09:47:27.588Z,12.15
2018-03-15T09:49:55.928Z,12.82
2018-03-15T09:52:24.297Z,13.98
2018-03-15T09:54:53.396Z,13.98
2018-03-15T09:57:21.741Z,11.95
2018-03-15T09:59:51.063Z,12.77
2018-03-15T10:02:20.149Z,13.00
2018-03-15T10:04:48.486Z,12.43
2018-03-15T10:07:16.858Z,12.77
2018-03-15T10:09:45.268Z,12.13
2018-03-15T10:12:13.589Z,11.70
2018-03-15T10:14:41.965Z,11.85
2018-03-15T10:17:10.304Z,14.05
2018-03-15T10:19:38.670Z,13.00
2018-03-15T10:22:07.202Z,12.63
2018-03-15T10:24:35.544Z,13.27
2018-03-15T10:27:03.887Z,12.27
2018-03-15T10:29:32.230Z,13.93
2018-03-15T10:32:01.352Z,14.10
2018-03-15T10:34:29.700Z,12.82
2018-03-15T10:36:58.070Z,14.55
2018-03-15T10:39:26.524Z,14.60
2018-03-15T10:41:54.847Z,14.50
2018-03-15T10:44:24.222Z,14.07
2018-03-15T10:46:52.543Z,13.95
2018-03-15T10:49:20.901Z,14.63
2018-03-15T10:51:50.079Z,14.95
2018-03-15T10:54:18.403Z,16.15
2018-03-15T10:56:46.744Z,16.05
2018-03-15T10:59:15.133Z,15.55
2018-03-15T11:01:48.890Z,16.52
2018-03-15T11:04:17.689Z,16.08
2018-03-15T11:06:51.453Z,17.20
2018-03-15T11:09:36.496Z,17.02
2018-03-15T11:12:04.846Z,17.55
2018-03-15T11:14:33.189Z,18.05
2018-03-15T11:17:01.562Z,16.52
2018-03-15T11:19:29.891Z,17.48
2018-03-15T11:21:58.222Z,17.35
2018-03-15T11:24:26.992Z,17.50
2018-03-15T11:26:55.348Z,16.20
2018-03-15T11:29:23.686Z,18.10
2018-03-15T11:31:52.071Z,15.65
2018-03-15T11:34:20.400Z,17.85
2018-03-15T11:36:49.536Z,16.23
2018-03-15T11:39:17.920Z,16.23
2018-03-15T11:41:46.258Z,16.52
2018-03-15T11:44:15.392Z,15.55
2018-03-15T11:46:44.170Z,17.95
2018-03-15T11:49:12.548Z,16.87
2018-03-15T11:51:40.887Z,15.85
2018-03-15T11:54:09.316Z,16.55
2018-03-15T11:56:37.657Z,16.75
2018-03-15T11:59:06.742Z,16.02
2018-03-15T12:01:35.161Z,16.08
2018-03-15T12:04:04.253Z,15.82
2018-03-15T12:06:32.680Z,16.77
2018-03-15T12:09:01.158Z,17.25
2018-03-15T12:11:29.501Z,16.00
2018-03-15T12:13:57.875Z,16.87
2018-03-15T12:16:26.248Z,14.52
2018-03-15T12:18:55.349Z,17.00
2018-03-15T12:21:24.587Z,15.85
2018-03-15T12:23:53.000Z,17.10
2018-03-15T12:26:21.321Z,16.85
2018-03-15T12:28:49.619Z,16.90
2018-03-15T12:31:19.042Z,18.55
2018-03-15T12:33:47.512Z,17.92
2018-03-15T12:36:15.840Z,18.15
2018-03-15T12:38:44.252Z,17.08
2018-03-15T12:41:12.611Z,17.10
2018-03-15T12:43:41.691Z,17.05
2018-03-15T12:46:10.075Z,18.23
2018-03-15T12:48:39.137Z,19.02
2018-03-15T12:51:07.470Z,16.60
2018-03-15T12:53:35.962Z,15.50
2018-03-15T12:56:04.300Z,17.05
2018-03-15T12:58:32.605Z,17.58
2018-03-15T13:01:01.733Z,18.12
2018-03-15T13:03:30.086Z,17.52
2018-03-15T13:05:58.393Z,17.95
2018-03-15T13:08:26.765Z,16.58
2018-03-15T13:10:55.088Z,18.17
2018-03-15T13:13:23.426Z,17.80
2018-03-15T13:15:51.968Z,17.25
2018-03-15T13:18:20.352Z,16.10
2018-03-15T13:20:49.430Z,17.15
2018-03-15T13:23:17.803Z,17.35
2018-03-15T13:25:46.138Z,18.40
2018-03-15T13:28:14.465Z,17.45
2018-03-15T13:30:42.810Z,19.40
2018-03-15T13:33:11.124Z,17.92
2018-03-15T13:35:39.494Z,17.90
2018-03-15T13:38:07.976Z,17.10
2018-03-15T13:40:36.340Z,18.73
2018-03-15T13:43:04.670Z,17.40
2018-03-15T13:45:33.009Z,17.95
2018-03-15T13:48:01.381Z,18.05
2018-03-15T13:50:29.716Z,17.33
2018-03-15T13:52:58.084Z,17.90
2018-03-15T13:55:26.543Z,18.45
2018-03-15T13:57:55.652Z,18.02
2018-03-15T14:00:25.688Z,15.48
2018-03-15T14:02:54.036Z,17.48
2018-03-15T14:05:23.124Z,18.30
2018-03-15T14:07:51.455Z,16.30
2018-03-15T14:10:19.758Z,18.02
2018-03-15T14:12:48.079Z,16.75
2018-03-15T14:15:16.426Z,17.55
2018-03-15T14:17:44.775Z,17.45
2018-03-15T14:20:13.086Z,17.98
2018-03-15T14:22:41.601Z,17.67
2018-03-15T14:25:09.964Z,17.08
2018-03-15T14:27:39.045Z,17.85
2018-03-15T14:30:07.394Z,18.10
2018-03-15T14:32:35.726Z,18.00
2018-03-15T14:35:04.064Z,17.92
2018-03-15T14:37:33.186Z,18.92
2018-03-15T14:40:01.516Z,17.83
2018-03-15T14:42:29.875Z,18.17
2018-03-15T14:44:58.458Z,17.35
2018-03-15T14:47:26.805Z,17.10
2018-03-15T14:49:55.921Z,18.67
2018-03-15T14:52:24.261Z,17.67
2018-03-15T14:54:52.604Z,16.65
2018-03-15T14:57:20.948Z,14.95
2018-03-15T14:59:50.099Z,17.08
2018-03-15T15:02:18.469Z,17.58
2018-03-15T15:04:46.824Z,16.48
2018-03-15T15:07:15.515Z,15.90
2018-03-15T15:09:43.911Z,14.20
2018-03-15T15:12:12.234Z,16.50
2018-03-15T15:14:40.636Z,15.48
2018-03-15T15:17:09.707Z,15.93
2018-03-15T15:19:38.064Z,16.58
2018-03-15T15:22:06.408Z,15.73
2018-03-15T15:24:34.719Z,16.40
2018-03-15T15:27:03.064Z,17.15
2018-03-15T15:29:31.485Z,14.52
2018-03-15T15:31:59.802Z,16.37
2018-03-15T15:34:28.902Z,15.40
2018-03-15T15:36:58.019Z,15.98
2018-03-15T15:39:26.353Z,15.80
2018-03-15T15:41:55.439Z,15.43
2018-03-15T15:44:24.572Z,17.50
2018-03-15T15:46:52.945Z,17.05
2018-03-15T15:49:22.069Z,16.73
2018-03-15T15:51:50.493Z,16.70
2018-03-15T15:54:19.757Z,15.70
2018-03-15T15:56:48.090Z,15.73
2018-03-15T15:59:16.477Z,15.65
2018-03-15T16:01:45.613Z,15.60
2018-03-15T16:04:14.007Z,16.45
2018-03-15T16:06:43.086Z,14.20
2018-03-15T16:09:11.418Z,15.73
2018-03-15T16:11:39.772Z,14.82
2018-03-15T16:14:08.698Z,14.90
2018-03-15T16:16:37.868Z,15.95
2018-03-15T16:19:06.205Z,14.20
2018-03-15T16:21:34.650Z,13.70
2018-03-15T16:24:02.953Z,14.75
2018-03-15T16:26:31.349Z,15.05
2018-03-15T16:28:59.755Z,15.20
2018-03-15T16:31:28.099Z,14.02
2018-03-15T16:33:56.424Z,14.35
2018-03-15T16:36:24.880Z,14.57
2018-03-15T16:38:53.496Z,13.80
2018-03-15T16:41:21.844Z,14.10
2018-03-15T16:43:50.215Z,14.23
2018-03-15T16:46:18.550Z,13.43
2018-03-15T16:48:47.624Z,13.52
2018-03-15T16:51:15.969Z,13.25
2018-03-15T16:53:44.280Z,13.82
2018-03-15T16:56:12.612Z,13.15
2018-03-15T16:58:41.280Z,13.13
2018-03-15T17:01:10.363Z,12.85
2018-03-15T17:03:38.686Z,12.52
2018-03-15T17:06:07.061Z,12.75
2018-03-15T17:08:35.383Z,12.55
2018-03-15T17:11:03.770Z,12.73
2018-03-15T17:13:32.980Z,13.60
2018-03-15T17:16:02.082Z,13.48
2018-03-15T17:18:30.515Z,12.80
2018-03-15T17:20:59.005Z,12.15
2018-03-15T17:23:27.345Z,12.10
2018-03-15T17:25:55.675Z,12.65
2018-03-15T17:28:24.798Z,12.15
2018-03-15T17:30:53.137Z,12.10
2018-03-15T17:33:21.479Z,12.60
2018-03-15T17:35:49.846Z,13.35
2018-03-15T17:38:18.187Z,12.45
2018-03-15T17:40:46.701Z,12.50
2018-03-15T17:43:15.379Z,10.95
2018-03-15T17:45:43.732Z,12.52
2018-03-15T17:48:12.069Z,12.05
2018-03-15T17:50:40.418Z,11.25
2018-03-15T17:53:09.548Z,12.15
2018-03-15T17:55:37.866Z,11.88
2018-03-15T17:58:06.432Z,12.70
2018-03-15T18:00:34.746Z,12.13
2018-03-15T18:03:03.834Z,11.70
2018-03-15T18:05:32.281Z,11.95
2018-03-15T18:08:00.618Z,12.05
2018-03-15T18:10:28.949Z,12.35
2018-03-15T18:12:57.326Z,12.45
2018-03-15T18:15:25.744Z,12.13
2018-03-15T18:17:54.861Z,13.00
2018-03-15T18:20:23.227Z,11.48
2018-03-15T18:22:51.552Z,12.80
2018-03-15T18:25:19.892Z,11.50
2018-03-15T18:27:48.304Z,11.85
2018-03-15T18:30:16.638Z,11.30
2018-03-15T18:32:45.714Z,11.48
2018-03-15T18:35:14.062Z,12.23
2018-03-15T18:37:42.370Z,12.25
2018-03-15T18:40:10.714Z,12.30
2018-03-15T18:42:39.185Z,12.00
2018-03-15T18:45:07.548Z,12.23
2018-03-15T18:47:35.890Z,12.57
2018-03-15T18:50:04.447Z,13.48
2018-03-15T18:52:32.802Z,13.02
2018-03-15T18:55:01.124Z,12.43
2018-03-15T18:57:29.481Z,12.55
2018-03-15T18:59:57.836Z,12.88
2018-03-15T19:02:26.182Z,13.32
2018-03-15T19:04:55.332Z,12.85
2018-03-15T19:07:23.697Z,13.07
2018-03-15T19:09:52.035Z,13.13
2018-03-15T19:12:21.500Z,12.68
2018-03-15T19:14:49.861Z,12.63
2018-03-15T19:17:18.294Z,13.73
2018-03-15T19:19:46.694Z,12.77
2018-03-15T19:22:15.098Z,12.93
2018-03-15T19:24:43.554Z,12.85
2018-03-15T19:27:11.917Z,12.18
2018-03-15T19:29:41.114Z,11.82
2018-03-15T19:32:10.261Z,13.30
2018-03-15T19:34:39.530Z,12.05
2018-03-15T19:37:07.861Z,12.57
2018-03-15T19:39:36.245Z,12.07
2018-03-15T19:42:04.595Z,12.37
2018-03-15T19:44:33.896Z,12.30
2018-03-15T19:47:02.295Z,12.43
2018-03-15T19:49:30.707Z,11.27
2018-03-15T19:51:59.119Z,12.60
2018-03-15T19:54:27.485Z,11.60
2018-03-15T19:56:56.668Z,12.15
2018-03-15T19:59:25.017Z,10.75
2018-03-15T20:01:53.384Z,11.23
2018-03-15T20:04:21.755Z,11.93
2018-03-15T20:06:51.365Z,11.10
2018-03-15T20:09:20.405Z,11.02
2018-03-15T20:11:49.565Z,11.15
2018-03-15T20:14:17.894Z,11.05
2018-03-15T20:16:46.220Z,10.80
2018-03-15T20:19:19.628Z,11.60
2018-03-15T20:21:47.930Z,12.43
2018-03-15T20:24:21.846Z,10.90
2018-03-15T20:26:50.196Z,11.48
2018-03-15T20:29:18.501Z,10.63
2018-03-15T20:31:47.620Z,10.73
2018-03-15T20:34:16.030Z,11.30
2018-03-15T20:36:45.187Z,11.05
2018-03-15T20:39:20.128Z,11.38
2018-03-15T20:41:49.200Z,10.73
2018-03-15T20:44:18.006Z,10.45
2018-03-15T20:46:52.559Z,11.30
2018-03-15T20:49:20.886Z,11.80
2018-03-15T20:51:49.240Z,11.18
2018-03-15T20:54:17.632Z,11.25
2018-03-15T20:56:45.970Z,11.30
2018-03-15T20:59:14.357Z,11.75
2018-03-15T21:01:42.861Z,11.75
2018-03-15T21:04:11.252Z,11.30
2018-03-15T21:06:40.511Z,11.35
2018-03-15T21:09:08.891Z,11.30
2018-03-15T21:11:37.240Z,10.77
2018-03-15T21:14:06.334Z,11.35
2018-03-15T21:16:35.492Z,11.23
2018-03-15T21:19:03.831Z,11.57
2018-03-15T21:21:32.190Z,11.73
2018-03-15T21:24:01.382Z,10.68
2018-03-15T21:26:30.505Z,12.70
2018-03-15T21:28:58.852Z,11.43
2018-03-15T21:31:27.218Z,12.27
2018-03-15T21:33:55.546Z,11.98
2018-03-15T21:36:23.876Z,11.60
2018-03-15T21:38:52.226Z,11.55
2018-03-15T21:41:20.581Z,12.07
2018-03-15T21:43:48.967Z,12.32
2018-03-15T21:46:17.696Z,12.52
2018-03-15T21:48:46.051Z,12.15
2018-03-15T21:51:14.387Z,12.45
2018-03-15T21:53:43.551Z,12.00
2018-03-15T21:56:11.869Z,12.68
2018-03-15T21:58:40.263Z,12.63
2018-03-15T22:01:08.789Z,14.07
2018-03-15T22:03:37.151Z,12.48
2018-03-15T22:06:06.291Z,11.98
2018-03-15T22:08:34.972Z,13.15
2018-03-15T22:11:03.362Z,12.73
2018-03-15T22:13:31.684Z,13.50
2018-03-15T22:16:00.057Z,12.20
2018-03-15T22:18:28.403Z,13.38
2018-03-15T22:20:57.577Z,12.73
2018-03-15T22:23:25.983Z,14.02
2018-03-15T22:25:54.304Z,14.45
2018-03-15T22:28:22.621Z,13.95
2018-03-15T22:30:51.050Z,14.65
2018-03-15T22:33:19.415Z,14.90
2018-03-15T22:35:47.806Z,14.95
2018-03-15T22:38:16.217Z,14.70
2018-03-15T22:40:44.573Z,15.95
2018-03-15T22:43:12.927Z,16.80
2018-03-15T22:45:41.303Z,15.32
2018-03-15T22:48:09.691Z,15.73
2018-03-15T22:50:38.002Z,17.33
2018-03-15T22:53:06.398Z,17.80
2018-03-15T22:55:34.718Z,18.92
2018-03-15T22:58:03.048Z,20.37
2018-03-15T23:00:31.401Z,18.50
2018-03-15T23:02:59.752Z,21.73
2018-03-15T23:05:28.848Z,21.58
2018-03-15T23:07:57.260Z,21.10
2018-03-15T23:10:25.635Z,21.00
2018-03-15T23:12:54.020Z,20.90
2018-03-15T23:15:22.494Z,21.67
2018-03-15T23:17:50.798Z,20.10
2018-03-15T23:20:19.890Z,20.42
2018-03-15T23:22:49.303Z,19.12
2018-03-15T23:25:17.657Z,17.92
2018-03-15T23:27:46.010Z,16.75
2018-03-15T23:30:14.377Z,15.55
2018-03-15T23:32:42.713Z,15.98
2018-03-15T23:35:11.058Z,16.40
2018-03-15T23:37:39.619Z,15.00
2018-03-15T23:40:07.940Z,16.58
2018-03-15T23:42:36.295Z,16.33
2018-03-15T23:45:04.640Z,15.88
2018-03-15T23:47:32.984Z,17.05
2018-03-15T23:50:01.340Z,16.90
2018-03-15T23:52:29.775Z,17.48
2018-03-15T23:54:59.658Z,17.27
2018-03-15T23:57:28.005Z,17.92
2018-03-15T23:59:56.680Z,18.83
